createdAt,value
2022-08-19T00:01:53.265Z,100105.41
2022-08-19T00:04:23.643Z,100095.81
2022-08-19T00:06:51.036Z,100103.75
2022-08-19T00:09:20.294Z,100101.53
2022-08-19T00:11:47.982Z,100101.75
2022-08-19T00:14:17.013Z,100109.59
2022-08-19T00:16:46.743Z,100103.22
2022-08-19T00:19:14.530Z,100098.88
2022-08-19T00:21:41.823Z,100090.03
2022-08-19T00:24:11.611Z,100102.34
2022-08-19T00:26:39.008Z,100109.44
2022-08-19T00:29:07.869Z,100113.25
2022-08-19T00:31:35.155Z,100114.56
2022-08-19T00:34:02.532Z,100108.78
2022-08-19T00:36:30.087Z,100114.78
2022-08-19T00:38:57.359Z,100124.63
2022-08-19T00:41:27.540Z,100119.19
2022-08-19T00:44:13.751Z,100116.69
2022-08-19T00:46:44.985Z,100124.53
2022-08-19T00:49:26.008Z,100128.06
2022-08-19T00:51:57.809Z,100131.53
2022-08-19T00:54:29.139Z,100132.84
2022-08-19T00:57:05.377Z,100121.63
2022-08-19T00:59:56.502Z,100138.44
2022-08-19T01:02:19.859Z,100144.38
2022-08-19T01:04:55.623Z,100154.09
2022-08-19T01:07:23.002Z,100154.00
2022-08-19T01:09:50.967Z,100158.50
2022-08-19T01:12:19.251Z,100152.13
2022-08-19T01:14:48.814Z,100157.50
2022-08-19T01:17:16.980Z,100163.41
2022-08-19T01:19:48.266Z,100157.59
2022-08-19T01:22:30.142Z,100167.28
2022-08-19T01:25:03.557Z,100161.50
2022-08-19T01:27:44.901Z,100164.72
2022-08-19T01:30:18.993Z,100159.16
2022-08-19T01:32:46.165Z,100167.22
2022-08-19T01:35:14.025Z,100161.78
2022-08-19T01:37:50.772Z,100162.72
2022-08-19T01:40:21.195Z,100154.78
2022-08-19T01:42:50.190Z,100155.53
2022-08-19T01:45:18.389Z,100154.44
2022-08-19T01:47:52.774Z,100138.59
2022-08-19T01:50:29.181Z,100144.03
2022-08-19T01:53:02.376Z,100148.66
2022-08-19T01:55:40.979Z,100139.31
2022-08-19T01:58:16.034Z,100136.25
2022-08-19T02:00:43.790Z,100132.94
2022-08-19T02:03:12.521Z,100130.72
2022-08-19T02:05:42.999Z,100131.66
2022-08-19T02:08:11.699Z,100119.09
2022-08-19T02:10:42.006Z,100112.22
2022-08-19T02:13:09.397Z,100116.63
2022-08-19T02:15:56.417Z,100151.16
2022-08-19T02:18:28.093Z,100164.38
2022-08-19T02:20:56.344Z,100173.88
2022-08-19T02:23:23.425Z,100173.75
2022-08-19T02:25:52.237Z,100173.38
2022-08-19T02:28:19.315Z,100180.25
2022-08-19T02:30:46.812Z,100173.72
2022-08-19T02:33:13.906Z,100175.84
2022-08-19T02:35:45.416Z,100175.38
2022-08-19T02:38:27.537Z,100174.34
2022-08-19T02:40:57.686Z,100171.84
2022-08-19T02:43:25.708Z,100173.50
2022-08-19T02:45:53.147Z,100178.09
2022-08-19T02:48:22.300Z,100174.81
2022-08-19T02:50:56.380Z,100171.47
2022-08-19T02:53:26.916Z,100179.03
2022-08-19T02:55:54.365Z,100181.53
2022-08-19T02:58:22.860Z,100179.63
2022-08-19T03:00:53.824Z,100175.28
2022-08-19T03:03:21.180Z,100174.44
2022-08-19T03:05:56.912Z,100179.63
2022-08-19T03:08:26.912Z,100176.91
2022-08-19T03:10:54.956Z,100175.28
2022-08-19T03:13:22.538Z,100180.72
2022-08-19T03:15:49.718Z,100174.66
2022-08-19T03:18:17.937Z,100187.56
2022-08-19T03:20:48.233Z,100194.78
2022-08-19T03:23:16.589Z,100194.31
2022-08-19T03:25:47.678Z,100196.09
2022-08-19T03:28:29.882Z,100201.63
2022-08-19T03:31:41.843Z,100189.72
2022-08-19T03:33:56.916Z,100197.75
2022-08-19T03:36:27.100Z,100193.97
2022-08-19T03:38:59.607Z,100196.06
2022-08-19T03:41:45.319Z,100185.19
2022-08-19T03:44:17.001Z,100183.34
2022-08-19T03:46:47.621Z,100189.69
2022-08-19T03:49:14.952Z,100184.97
2022-08-19T03:51:43.455Z,100192.88
2022-08-19T03:54:14.324Z,100193.00
2022-08-19T03:56:44.294Z,100189.00
2022-08-19T03:59:16.649Z,100186.16
2022-08-19T04:01:44.141Z,100185.31
2022-08-19T04:04:11.336Z,100189.31
2022-08-19T04:06:40.088Z,100191.13
2022-08-19T04:09:12.352Z,100196.09
2022-08-19T04:11:46.030Z,100207.66
2022-08-19T04:14:17.822Z,100201.59
2022-08-19T04:16:45.944Z,100198.03
2022-08-19T04:19:14.173Z,100198.06
2022-08-19T04:21:43.617Z,100199.94
2022-08-19T04:24:11.615Z,100195.16
2022-08-19T04:26:40.190Z,100202.56
2022-08-19T04:29:17.022Z,100201.00
2022-08-19T04:31:46.231Z,100196.88
2022-08-19T04:34:16.188Z,100207.16
2022-08-19T04:36:45.991Z,100215.16
2022-08-19T04:39:16.949Z,100211.56
2022-08-19T04:42:03.854Z,100217.75
2022-08-19T04:44:35.290Z,100216.69
2022-08-19T04:47:11.273Z,100215.41
2022-08-19T04:49:38.706Z,100212.47
2022-08-19T04:52:05.885Z,100210.38
2022-08-19T04:54:38.316Z,100215.78
2022-08-19T04:57:11.139Z,100214.88
2022-08-19T04:59:39.967Z,100205.00
2022-08-19T05:02:09.695Z,100202.53
2022-08-19T05:04:40.346Z,100211.56
2022-08-19T05:07:09.226Z,100211.03
2022-08-19T05:09:57.798Z,100208.81
2022-08-19T05:12:28.733Z,100215.69
2022-08-19T05:14:58.340Z,100217.59
2022-08-19T05:17:29.035Z,100205.81
2022-08-19T05:20:16.879Z,100222.28
2022-08-19T05:22:46.313Z,100214.31
2022-08-19T05:25:16.689Z,100215.41
2022-08-19T05:27:43.736Z,100214.03
2022-08-19T05:30:12.392Z,100209.91
2022-08-19T05:32:40.904Z,100211.25
2022-08-19T05:35:08.460Z,100207.28
2022-08-19T05:37:35.532Z,100207.28
2022-08-19T05:40:10.668Z,100216.56
2022-08-19T05:42:38.608Z,100212.44
2022-08-19T05:45:06.147Z,100214.31
2022-08-19T05:47:33.284Z,100214.03
2022-08-19T05:50:00.472Z,100209.28
2022-08-19T05:52:29.188Z,100219.03
2022-08-19T05:54:57.503Z,100212.31
2022-08-19T05:57:31.649Z,100212.38
2022-08-19T06:00:01.286Z,100214.59
2022-08-19T06:02:32.015Z,100209.41
2022-08-19T06:04:59.449Z,100215.22
2022-08-19T06:07:26.636Z,100219.03
2022-08-19T06:10:00.252Z,100209.16
2022-08-19T06:12:35.672Z,100217.09
2022-08-19T06:15:09.800Z,100223.63
2022-08-19T06:17:37.260Z,100222.47
2022-08-19T06:20:13.055Z,100228.88
2022-08-19T06:22:45.583Z,100218.72
2022-08-19T06:25:14.925Z,100218.44
2022-08-19T06:27:58.956Z,100216.97
2022-08-19T06:30:29.784Z,100235.03
2022-08-19T06:32:56.931Z,100223.91
2022-08-19T06:35:24.076Z,100217.63
2022-08-19T06:37:51.078Z,100209.97
2022-08-19T06:40:18.255Z,100209.09
2022-08-19T06:42:54.153Z,100220.34
2022-08-19T06:45:34.577Z,100211.56
2022-08-19T06:48:03.487Z,100229.63
2022-08-19T06:50:30.637Z,100220.25
2022-08-19T06:52:57.650Z,100216.88
2022-08-19T06:55:30.378Z,100220.13
2022-08-19T06:58:04.878Z,100223.06
2022-08-19T07:03:07.789Z,100229.69
2022-08-19T07:05:45.773Z,100227.28
2022-08-19T07:08:14.690Z,100227.34
2022-08-19T07:10:49.301Z,100224.16
2022-08-19T07:13:16.434Z,100229.97
2022-08-19T07:15:43.576Z,100229.72
2022-08-19T07:18:11.863Z,100226.75
2022-08-19T07:20:40.449Z,100221.19
2022-08-19T07:23:09.918Z,100227.31
2022-08-19T07:25:53.157Z,100223.28
2022-08-19T07:28:24.464Z,100222.09
2022-08-19T07:30:53.080Z,100231.81
2022-08-19T07:33:23.086Z,100228.28
2022-08-19T07:35:50.942Z,100228.00
2022-08-19T07:38:18.251Z,100224.47
2022-08-19T07:40:47.285Z,100235.91
2022-08-19T07:43:17.080Z,100239.16
2022-08-19T07:45:48.256Z,100246.34
2022-08-19T07:48:17.520Z,100230.13
2022-08-19T07:51:11.335Z,100241.25
2022-08-19T07:53:45.963Z,100243.94
2022-08-19T07:56:15.136Z,100236.94
2022-08-19T07:58:44.993Z,100235.78
2022-08-19T08:01:21.886Z,100243.09
2022-08-19T08:04:08.535Z,100229.75
2022-08-19T08:06:54.245Z,100250.81
2022-08-19T08:09:39.378Z,100250.41
2022-08-19T08:12:33.002Z,100247.44
2022-08-19T08:15:02.994Z,100246.41
2022-08-19T08:17:48.664Z,100247.22
2022-08-19T08:20:18.106Z,100252.38
2022-08-19T08:23:07.638Z,100255.66
2022-08-19T08:25:36.529Z,100257.75
2022-08-19T08:28:04.789Z,100262.88
2022-08-19T08:30:33.961Z,100256.25
2022-08-19T08:33:02.742Z,100241.59
2022-08-19T08:35:30.032Z,100251.91
2022-08-19T08:37:58.613Z,100250.78
2022-08-19T08:40:31.485Z,100241.81
2022-08-19T08:43:26.724Z,100238.97
2022-08-19T08:46:01.619Z,100245.75
2022-08-19T08:48:54.590Z,100240.69
2022-08-19T08:51:29.912Z,100251.53
2022-08-19T08:54:10.752Z,100237.75
2022-08-19T08:56:45.372Z,100242.94
2022-08-19T08:59:22.924Z,100236.84
2022-08-19T09:01:50.879Z,100251.53
2022-08-19T09:04:21.140Z,100255.31
2022-08-19T09:06:55.983Z,100256.41
2022-08-19T09:09:35.919Z,100265.91
2022-08-19T09:12:16.447Z,100249.28
2022-08-19T09:14:55.134Z,100247.16
2022-08-19T09:17:28.585Z,100252.63
2022-08-19T09:20:18.111Z,100242.97
2022-08-19T09:22:45.457Z,100247.97
2022-08-19T09:25:16.643Z,100251.41
2022-08-19T09:27:44.217Z,100247.56
2022-08-19T09:30:22.098Z,100248.72
2022-08-19T09:32:53.916Z,100256.63
2022-08-19T09:35:25.371Z,100250.38
2022-08-19T09:37:59.668Z,100263.19
2022-08-19T09:40:30.330Z,100259.19
2022-08-19T09:43:01.668Z,100257.78
2022-08-19T09:45:29.089Z,100260.00
2022-08-19T09:47:57.777Z,100255.84
2022-08-19T09:50:25.473Z,100271.38
2022-08-19T09:52:55.766Z,100264.88
2022-08-19T09:55:31.208Z,100256.81
2022-08-19T09:58:03.307Z,100258.66
2022-08-19T10:00:32.026Z,100249.81
2022-08-19T10:02:59.494Z,100269.91
2022-08-19T10:05:45.281Z,100267.56
2022-08-19T10:08:28.883Z,100278.41
2022-08-19T10:10:57.316Z,100276.88
2022-08-19T10:13:28.776Z,100271.94
2022-08-19T10:15:58.695Z,100283.66
2022-08-19T10:18:26.552Z,100282.47
2022-08-19T10:20:54.729Z,100269.25
2022-08-19T10:23:22.659Z,100273.97
2022-08-19T10:25:50.883Z,100286.94
2022-08-19T10:28:19.461Z,100276.09
2022-08-19T10:30:56.463Z,100288.09
2022-08-19T10:33:52.948Z,100287.56
2022-08-19T10:36:16.225Z,100279.31
2022-08-19T10:38:52.284Z,100276.50
2022-08-19T10:41:25.286Z,100271.56
2022-08-19T10:43:55.425Z,100284.50
2022-08-19T10:46:26.902Z,100282.91
2022-08-19T10:48:55.546Z,100281.00
2022-08-19T10:51:48.082Z,100267.25
2022-08-19T10:54:16.537Z,100276.41
2022-08-19T10:56:52.683Z,100291.94
2022-08-19T10:59:35.759Z,100317.19
2022-08-19T11:02:05.444Z,100294.97
2022-08-19T11:04:33.635Z,100286.75
2022-08-19T11:07:00.724Z,100284.31
2022-08-19T11:09:34.336Z,100281.81
2022-08-19T11:12:03.053Z,100279.66
2022-08-19T11:14:34.493Z,100274.69
2022-08-19T11:17:02.351Z,100281.25
2022-08-19T11:19:29.441Z,100276.81
2022-08-19T11:21:56.582Z,100268.59
2022-08-19T11:24:26.940Z,100269.97
2022-08-19T11:27:01.171Z,100274.13
2022-08-19T11:29:28.970Z,100274.13
2022-08-19T11:31:56.289Z,100236.25
2022-08-19T11:34:28.581Z,100259.13
2022-08-19T11:36:59.801Z,100263.78
2022-08-19T11:39:29.143Z,100264.31
2022-08-19T11:41:56.470Z,100270.91
2022-08-19T11:44:23.544Z,100275.31
2022-08-19T11:46:50.662Z,100266.25
2022-08-19T11:49:22.674Z,100281.91
2022-08-19T11:51:51.750Z,100272.84
2022-08-19T11:54:21.044Z,100261.31
2022-08-19T11:56:50.162Z,100276.97
2022-08-19T11:59:17.376Z,100273.59
2022-08-19T12:01:44.640Z,100263.41
2022-08-19T12:04:12.293Z,100265.88
2022-08-19T12:06:40.929Z,100254.34
2022-08-19T12:09:10.526Z,100268.06
2022-08-19T12:11:39.341Z,100251.06
2022-08-19T12:14:07.995Z,100244.47
2022-08-19T12:16:37.746Z,100249.97
2022-08-19T12:19:06.903Z,100252.69
2022-08-19T12:21:36.009Z,100251.59
2022-08-19T12:24:04.710Z,100255.16
2022-08-19T12:26:32.555Z,100247.22
2022-08-19T12:29:00.665Z,100246.97
2022-08-19T12:31:29.460Z,100242.84
2022-08-19T12:33:56.833Z,100252.72
2022-08-19T12:36:26.644Z,100238.75
2022-08-19T12:38:53.981Z,100251.09
2022-08-19T12:41:23.270Z,100248.31
2022-08-19T12:43:53.541Z,100263.16
2022-08-19T12:46:23.032Z,100246.69
2022-08-19T12:48:56.214Z,100246.13
2022-08-19T12:51:26.397Z,100252.72
2022-08-19T12:53:53.539Z,100240.66
2022-08-19T12:56:23.545Z,100271.94
2022-08-19T12:58:53.306Z,100258.72
2022-08-19T13:01:22.807Z,100252.66
2022-08-19T13:03:51.396Z,100249.91
2022-08-19T13:06:20.333Z,100261.41
2022-08-19T13:08:47.759Z,100257.06
2022-08-19T13:11:20.199Z,100262.25
2022-08-19T13:13:50.746Z,100264.75
2022-08-19T13:16:18.830Z,100258.72
2022-08-19T13:18:53.024Z,100264.16
2022-08-19T13:21:24.016Z,100270.16
2022-08-19T13:23:52.109Z,100256.78
2022-08-19T13:26:19.792Z,100257.06
2022-08-19T13:29:05.573Z,100257.66
2022-08-19T13:31:54.105Z,100260.97
2022-08-19T13:34:31.219Z,100256.53
2022-08-19T13:36:59.144Z,100257.63
2022-08-19T13:39:26.414Z,100261.19
2022-08-19T13:41:53.798Z,100263.66
2022-08-19T13:44:21.211Z,100260.34
2022-08-19T13:46:50.096Z,100262.00
2022-08-19T13:49:21.712Z,100267.47
2022-08-19T13:51:48.938Z,100274.31
2022-08-19T13:54:23.344Z,100264.44
2022-08-19T13:56:50.381Z,100274.56
2022-08-19T13:59:18.191Z,100275.09
2022-08-19T14:01:47.568Z,100271.50
2022-08-19T14:04:14.552Z,100285.78
2022-08-19T14:06:41.629Z,100273.88
2022-08-19T14:09:08.844Z,100278.25
2022-08-19T14:11:35.803Z,100279.31
2022-08-19T14:14:02.774Z,100283.69
2022-08-19T14:16:31.488Z,100279.28
2022-08-19T14:19:00.776Z,100279.53
2022-08-19T14:21:27.927Z,100287.72
2022-08-19T14:23:57.469Z,100290.97
2022-08-19T14:26:24.894Z,100296.72
2022-08-19T14:28:55.543Z,100287.41
2022-08-19T14:31:27.850Z,100325.19
2022-08-19T14:33:58.394Z,100284.63
2022-08-19T14:36:25.693Z,100278.81
2022-08-19T14:38:52.896Z,100265.25
2022-08-19T14:41:26.983Z,100283.75
2022-08-19T14:43:55.132Z,100291.31
2022-08-19T14:46:26.240Z,100287.16
2022-08-19T14:48:57.599Z,100291.00
2022-08-19T14:51:27.844Z,100280.97
2022-08-19T14:53:56.441Z,100288.09
2022-08-19T14:56:27.667Z,100289.19
2022-08-19T14:58:55.649Z,100289.97
2022-08-19T15:01:24.253Z,100297.03
2022-08-19T15:03:54.073Z,100297.25
2022-08-19T15:06:22.673Z,100290.97
2022-08-19T15:08:52.882Z,100293.94
2022-08-19T15:11:23.722Z,100298.38
2022-08-19T15:13:51.443Z,100305.50
2022-08-19T15:16:19.456Z,100298.31
2022-08-19T15:18:50.775Z,100289.56
2022-08-19T15:21:26.797Z,100296.38
2022-08-19T15:23:56.560Z,100302.09
2022-08-19T15:26:28.639Z,100305.16
2022-08-19T15:28:58.187Z,100294.38
2022-08-19T15:31:28.759Z,100306.19
2022-08-19T15:33:58.931Z,100306.44
2022-08-19T15:36:27.286Z,100322.31
2022-08-19T15:38:57.213Z,100321.22
2022-08-19T15:41:30.868Z,100324.84
2022-08-19T15:44:10.290Z,100322.91
2022-08-19T15:46:39.522Z,100321.81
2022-08-19T15:49:07.896Z,100323.97
2022-08-19T15:51:39.342Z,100319.31
2022-08-19T15:54:09.560Z,100332.16
2022-08-19T15:56:57.970Z,100327.19
2022-08-19T15:59:47.381Z,100332.69
2022-08-19T16:02:34.980Z,100332.09
2022-08-19T16:05:26.582Z,100339.19
2022-08-19T16:08:01.467Z,100335.84
2022-08-19T16:10:31.165Z,100362.91
2022-08-19T16:13:03.179Z,100339.03
2022-08-19T16:15:46.259Z,100347.19
2022-08-19T16:18:15.932Z,100351.94
2022-08-19T16:20:44.587Z,100346.38
2022-08-19T16:23:11.843Z,100346.28
2022-08-19T16:25:39.624Z,100349.28
2022-08-19T16:28:10.009Z,100345.97
2022-08-19T16:30:48.501Z,100353.34
2022-08-19T16:33:40.805Z,100349.47
2022-08-19T16:36:26.649Z,100349.16
2022-08-19T16:38:55.578Z,100352.66
2022-08-19T16:41:28.276Z,100344.06
2022-08-19T16:43:55.708Z,100360.63
2022-08-19T16:46:26.846Z,100374.53
2022-08-19T16:48:54.738Z,100376.09
2022-08-19T16:51:23.020Z,100375.50
2022-08-19T16:53:52.653Z,100373.53
2022-08-19T16:56:21.360Z,100376.69
2022-08-19T16:58:50.915Z,100379.34
2022-08-19T17:01:19.513Z,100385.22
2022-08-19T17:03:48.734Z,100392.00
2022-08-19T17:06:20.891Z,100390.59
2022-08-19T17:08:50.936Z,100398.78
2022-08-19T17:11:19.857Z,100410.28
2022-08-19T17:13:51.098Z,100404.25
2022-08-19T17:16:22.266Z,100401.19
2022-08-19T17:18:53.048Z,100409.88
2022-08-19T17:21:22.666Z,100393.38
2022-08-19T17:23:49.783Z,100398.03
2022-08-19T17:26:18.612Z,100404.81
2022-08-19T17:28:51.997Z,100399.03
2022-08-19T17:31:21.639Z,100396.22
2022-08-19T17:33:52.213Z,100399.44
2022-08-19T17:36:27.290Z,100407.03
2022-08-19T17:38:57.378Z,100405.28
2022-08-19T17:41:25.677Z,100407.91
2022-08-19T17:43:53.394Z,100401.28
2022-08-19T17:46:20.740Z,100416.00
2022-08-19T17:48:52.754Z,100415.41
2022-08-19T17:51:42.385Z,100429.53
2022-08-19T17:54:16.242Z,100417.47
2022-08-19T17:56:48.012Z,100421.25
2022-08-19T17:59:20.165Z,100408.34
2022-08-19T18:01:58.117Z,100413.13
2022-08-19T18:04:27.787Z,100422.34
2022-08-19T18:06:56.089Z,100404.50
2022-08-19T18:09:38.618Z,100421.91
2022-08-19T18:12:23.507Z,100416.94
2022-08-19T18:14:57.765Z,100391.19
2022-08-19T18:17:28.332Z,100417.34
2022-08-19T18:19:56.068Z,100410.25
2022-08-19T18:22:23.043Z,100417.56
2022-08-19T18:24:50.420Z,100421.03
2022-08-19T18:27:17.544Z,100435.75
2022-08-19T18:29:45.172Z,100433.50
2022-08-19T18:32:13.054Z,100433.13
2022-08-19T18:34:42.905Z,100439.31
2022-08-19T18:37:10.843Z,100443.13
2022-08-19T18:39:56.742Z,100441.09
2022-08-19T18:42:46.230Z,100443.47
2022-08-19T18:45:31.830Z,100431.16
2022-08-19T18:48:26.652Z,100432.66
2022-08-19T18:50:57.695Z,100429.81
2022-08-19T18:53:26.281Z,100431.13
2022-08-19T18:55:55.540Z,100431.25
2022-08-19T18:58:34.474Z,100433.16
2022-08-19T19:01:25.204Z,100440.97
2022-08-19T19:03:54.323Z,100434.94
2022-08-19T19:06:28.824Z,100440.03
2022-08-19T19:08:56.988Z,100435.06
2022-08-19T19:11:30.525Z,100438.25
2022-08-19T19:13:57.725Z,100442.06
2022-08-19T19:16:28.795Z,100434.00
2022-08-19T19:18:59.656Z,100443.00
2022-08-19T19:21:26.971Z,100438.03
2022-08-19T19:23:55.648Z,100442.66
2022-08-19T19:26:23.528Z,100444.50
2022-08-19T19:28:51.573Z,100439.78
2022-08-19T19:31:26.857Z,100435.63
2022-08-19T19:33:55.869Z,100440.72
2022-08-19T19:36:25.549Z,100438.34
2022-08-19T19:38:53.165Z,100436.44
2022-08-19T19:41:26.375Z,100438.59
2022-08-19T19:44:29.355Z,100451.84
2022-08-19T19:46:45.970Z,100446.88
2022-08-19T19:49:14.106Z,100449.81
2022-08-19T19:51:43.358Z,100455.72
2022-08-19T19:54:15.698Z,100449.06
2022-08-19T19:56:48.659Z,100453.06
2022-08-19T19:59:16.280Z,100450.81
2022-08-19T20:01:46.878Z,100448.81
2022-08-19T20:04:15.460Z,100459.69
2022-08-19T20:06:42.557Z,100450.94
2022-08-19T20:09:10.861Z,100462.28
2022-08-19T20:11:42.044Z,100465.22
2022-08-19T20:14:12.716Z,100463.81
2022-08-19T20:16:44.070Z,100461.56
2022-08-19T20:19:13.493Z,100460.94
2022-08-19T20:21:43.784Z,100462.47
2022-08-19T20:24:14.053Z,100466.69
2022-08-19T20:26:42.743Z,100469.31
2022-08-19T20:29:38.340Z,100467.63
2022-08-19T20:31:59.457Z,100471.06
2022-08-19T20:34:27.539Z,100462.28
2022-08-19T20:36:54.742Z,100463.19
2022-08-19T20:39:21.823Z,100467.19
2022-08-19T20:41:50.964Z,100470.16
2022-08-19T20:44:18.063Z,100477.13
2022-08-19T20:46:54.518Z,100472.16
2022-08-19T20:49:27.470Z,100466.31
2022-08-19T20:51:56.274Z,100465.72
2022-08-19T20:54:26.224Z,100469.28
2022-08-19T20:56:53.435Z,100468.91
2022-08-19T20:59:21.819Z,100472.53
2022-08-19T21:01:51.908Z,100470.41
2022-08-19T21:04:21.382Z,100476.91
2022-08-19T21:06:50.237Z,100491.19
2022-08-19T21:09:17.433Z,100480.53
2022-08-19T21:11:44.671Z,100482.41
2022-08-19T21:14:12.959Z,100482.19
2022-08-19T21:16:40.134Z,100481.56
2022-08-19T21:19:07.503Z,100488.03
2022-08-19T21:21:35.093Z,100494.53
2022-08-19T21:24:02.210Z,100484.94
2022-08-19T21:26:29.124Z,100492.88
2022-08-19T21:28:56.354Z,100497.50
2022-08-19T21:31:23.552Z,100485.75
2022-08-19T21:33:50.520Z,100487.78
2022-08-19T21:36:17.633Z,100484.00
2022-08-19T21:38:44.658Z,100488.97
2022-08-19T21:41:11.709Z,100490.41
2022-08-19T21:43:39.231Z,100488.75
2022-08-19T21:46:07.218Z,100479.63
2022-08-19T21:48:34.225Z,100490.03
2022-08-19T21:51:01.413Z,100487.94
2022-08-19T21:53:31.470Z,100489.59
2022-08-19T21:56:01.633Z,100491.09
2022-08-19T21:58:36.617Z,100489.72
2022-08-19T22:01:06.461Z,100493.34
2022-08-19T22:03:38.555Z,100490.34
2022-08-19T22:06:06.848Z,100491.06
2022-08-19T22:08:34.006Z,100486.53
2022-08-19T22:11:02.959Z,100498.91
2022-08-19T22:13:39.786Z,100493.75
2022-08-19T22:16:09.995Z,100506.72
2022-08-19T22:18:37.407Z,100490.28
2022-08-19T22:21:12.318Z,100496.53
2022-08-19T22:23:44.479Z,100503.88
2022-08-19T22:26:12.849Z,100495.09
2022-08-19T22:28:49.708Z,100496.75
2022-08-19T22:31:24.642Z,100503.25
2022-08-19T22:33:52.875Z,100501.41
2022-08-19T22:36:20.609Z,100501.41
2022-08-19T22:38:50.555Z,100495.66
2022-08-19T22:41:17.662Z,100493.16
2022-08-19T22:43:46.738Z,100493.78
2022-08-19T22:46:17.333Z,100509.00
2022-08-19T22:48:45.674Z,100494.09
2022-08-19T22:51:31.278Z,100508.44
2022-08-19T22:53:58.511Z,100502.41
2022-08-19T22:56:26.082Z,100502.41
2022-08-19T22:58:53.703Z,100509.75
2022-08-19T23:01:27.460Z,100508.28
2022-08-19T23:03:59.282Z,100517.28
2022-08-19T23:06:31.214Z,100509.19
2022-08-19T23:09:01.851Z,100514.44
2022-08-19T23:11:31.494Z,100511.53
2022-08-19T23:13:58.634Z,100516.19
2022-08-19T23:16:25.597Z,100518.94
2022-08-19T23:18:55.956Z,100527.53
2022-08-19T23:21:26.740Z,100521.91
2022-08-19T23:23:54.279Z,100534.66
2022-08-19T23:26:23.092Z,100540.75
2022-08-19T23:29:08.573Z,100537.84
2022-08-19T23:31:38.266Z,100542.03
2022-08-19T23:34:05.991Z,100538.50
2022-08-19T23:36:35.396Z,100531.63
2022-08-19T23:39:02.517Z,100534.56
2022-08-19T23:41:29.583Z,100529.56
2022-08-19T23:43:56.689Z,100538.56
2022-08-19T23:46:28.543Z,100545.03
2022-08-19T23:48:56.796Z,100551.28
2022-08-19T23:51:24.796Z,100538.59
2022-08-19T23:53:51.789Z,100537.97
2022-08-19T23:56:21.734Z,100539.66
2022-08-19T23:58:49.269Z,100538.81
